Chhatrapati Shivaji International Airport
VABB : now visible

Airfield :











YOU CAN JOIN US ON...

 
LOGIN :

Register | Disclaimer

   EN    FR    IT 

 









Legend :    VFR   Marginal VFR   IFR   Intensive IFR   Very Intensive IFR
Visi :
Ceiling :
>= 8 km
>= 3000ft
5 to 8 km
1000 to 3000 ft
1500m to 5 km
500 to 1000 ft
800 to 1500m
200 to 500 ft
< 800m
< 200 ft
Symbols :   Thunderstorms  Fog  Heavy snow  Heavy precipitations  Wind > 20 kt






- Airport Elevation : 37 ft
- IATA code : BOM


VABB - Chhatrapati Shivaji International

CURRENT METAR :
  • 251130Z 31007KT 3000 FU FEW100 30/15 Q1011 NOSIG

EXPIRED METARs :
  • 251100Z 32011KT 3000 FU SCT100 30/17 Q1011 NOSIG
  • 251030Z 30011KT 3000 FU SCT100 30/18 Q1011 NOSIG
  • 251000Z 30008KT 3000 FU SCT100 32/18 Q1011 NOSIG
  • 250930Z 31008KT 3000 FU FEW100 32/19 Q1012 NOSIG
  • 250900Z 30011KT 3000 FU FEW100 32/18 Q1011 NOSIG

TAF TAF VABB
Valid from the 25 at 12:00 until the 25 at 21:00 UTC


251100Z 2512/2521 32008KT 3000 FU NSC
BECMG 2518/2520 05005KT



MET'MAP, your aeronautical weather chart ! - Copyright ORBIFLY December 2007 - Disclaimer

ORBIFLY MET'MAP TEAM :

Programming & Development : Alexandra Zaïnal
Concept & original design : Baudouin d'Aumeries
Assistance for programming : Marc-Olivier Méhu
Technical & hardware support : Manuel Goepfert

Contact : metmap@orbifly.com




SOURCES & CREDITS :

   NOAA       Earth
Advisory